• Join FlightAware (Why Join?)
  • Login
  • US Flag 
07:39AM EDT


 

Airport Tracker/Info


-or-


 

Live Flight TrackerFlight Track Log ✈ CPZ5841 ✈ 18-Sep-2013 ✈ KSFO - KLAX

Flight Track Log - Related Links

Times and Time Zones

All times are in EDT time to prevent confusion due to time zone crossing. See the CPZ5841 flight status page for this flight to view local times or setup timezone preferences in your user account.

Time Position Orientation Groundspeed Altitude Reporting Facility
EDT Latitude Longitude Course Direction KTS MPH feet Rate Location/Type
03:09PM 37.6656 -122.3697 147° Southeast 155 178 2,000  Level Oakland Center
03:10PM 37.7156 -122.3922 340° North 209 241 3,900 2,400 Climbing Oakland Center
03:11PM 37.3234 -122.0366 136° Southeast  Level Estimated
03:11PM 37.6672 -122.4486 223° Southwest 265 305 7,000  Level Oakland Center
03:12PM 37.2494 -121.9524 132° Southeast  Level Estimated
03:12PM 37.5889 -122.4250 167° South 296 341 9,900  Level Oakland Center
03:13PM 37.1659 -121.8835 147° Southeast  Level FlightAware Approximate
03:13PM 37.5058 -122.3772 155° Southeast 331 381 12,000  Level Oakland Center
03:14PM 37.4267 -122.3078 145° Southeast 356 410 14,200 2,040 Climbing Oakland Center
03:15PM 37.3556 -122.2114 133° Southeast 376 433 16,200 2,040 Climbing Oakland Center
03:16PM 37.2656 -122.0892 133° Southeast 400 460 18,400 1,860 Climbing Oakland Center
03:17PM 37.1864 -121.9836 133° Southeast 417 480 20,100 1,680 Climbing Oakland Center
03:18PM 37.1028 -121.8719 133° Southeast 440 506 21,900 1,560 Climbing Oakland Center
03:19PM 37.0183 -121.7586 133° Southeast 445 512 23,400 1,320 Climbing Oakland Center
03:20PM 36.9300 -121.6419 133° Southeast 461 531 24,700 1,260 Climbing Oakland Center
03:21PM 36.8400 -121.5217 133° Southeast 474 545 26,000 1,200 Climbing Oakland Center
03:22PM 36.7492 -121.4025 134° Southeast 485 558 27,200 1,200 Climbing Oakland Center
03:23PM 36.6361 -121.2519 133° Southeast 496 571 28,500 840 Climbing Oakland Center
03:24PM 36.5397 -121.1269 134° Southeast 501 577 29,000 240 Climbing Oakland Center
03:25PM 36.4422 -121.0006 134° Southeast 505 581 29,000  Level Oakland Center
03:26PM 36.3467 -120.8753 133° Southeast 503 579 29,000  Level Oakland Center
03:27PM 36.2489 -120.7489 134° Southeast 505 581 29,000  Level Oakland Center
03:28PM 36.1519 -120.6242 134° Southeast 504 580 29,000  Level Oakland Center
03:29PM 36.0542 -120.4986 134° Southeast 505 581 29,000  Level Oakland Center
03:30PM 35.9578 -120.3739 134° Southeast 503 579 29,000  Level Oakland Center
03:31PM 35.8594 -120.2486 134° Southeast 505 581 29,000  Level Oakland Center
03:32PM 35.7625 -120.1250 134° Southeast 501 577 29,000  Level Oakland Center
03:33PM 35.6642 -120.0011 134° Southeast 501 577 29,000  Level Oakland Center
03:34PM 35.5300 -119.8769 143° Southeast 499 574 29,000  Level Oakland Center
03:35PM 35.4167 -119.7783 145° Southeast 497 572 29,000  Level Oakland Center
03:36PM 35.3019 -119.6797 145° Southeast 498 573 29,000  Level Oakland Center
03:37PM 35.1883 -119.5831 145° Southeast 497 572 29,000  Level Oakland Center
03:38PM 35.0767 -119.4878 145° Southeast 491 565 29,000  Level Oakland Center
03:39PM 34.9644 -119.3936 145° Southeast 490 564 29,000 -480 Level Oakland Center
03:40PM 34.8556 -119.3008 145° Southeast 485 558 28,100 -1,620 Descending Oakland Center
03:41PM 34.7494 -119.2114 145° Southeast 474 545 25,800 -2,160 Descending Oakland Center
03:47PM 34.2167 -118.8833 153° Southeast 321 369 14,200 -1,980 Descending Southern California TRACON
03:48PM 34.1333 -118.9000 189° South 282 325 13,300 -1,200 Descending Southern California TRACON
03:49PM 34.0667 -118.8667 157° South 266 306 11,800 -1,380 Descending Southern California TRACON
03:50PM 34.0333 -118.8000 121° Southeast 275 316 10,600 -900 Descending Southern California TRACON
03:51PM 34.0500 -118.7000 79° East 259 298 10,000 -540 Descending Southern California TRACON
03:52PM 34.0333 -118.6167 104° East 257 296 9,500 -900 Descending Southern California TRACON
03:53PM 34.0167 -118.5333 104° East 251 289 8,300 -1,080 Descending Southern California TRACON
03:54PM 34.0114 -118.4389 94° East 222 255 7,100 -1,020 Descending Los Angeles Center
03:55PM 34.0158 -118.3694 86° East 208 239 6,000 -1,020 Descending Los Angeles Center
03:56PM 34.0206 -118.3050 85° East 198 228 5,000 -540 Descending Los Angeles Center
03:57PM 34.0242 -118.2414 86° East 192 221 4,900 -660 Descending Los Angeles Center
03:58PM 33.9756 -118.2303 169° South 196 226 3,700 -1,260 Descending Los Angeles Center
03:59PM 33.9636 -118.2883 256° West 188 216 2,300 -1,260 Descending Los Angeles Center
04:00PM 33.9583 -118.3436 263° West 154 177 1,100 -900 Descending Los Angeles Center
04:01PM 33.9544 -118.3858 264° West 137 158 500 -540 Descending Los Angeles Center
04:02PM 33.9494 -118.4261 261° West 126 145 100 -420 Descending Los Angeles Center